Time;durP1;ratioP1;P1;durP2;ratioP2;P2;SDS_P1;SDS_P2;PMS_P1;PMS_P2;Temp;Humidity;BMP_temperature;BMP_pressure;BME280_temperature;BME280_humidity;BME280_pressure;Samples;Min_cycle;Max_cycle;Signal;HPM_P1;HPM_P2
2023/06/26 00:00:24;;;;;;;14.52;10.07;;;;;;;16.75;100.00;94028.94;5048632;28;20048;-60
2023/06/26 00:02:51;;;;;;;13.48;8.90;;;;;;;16.72;100.00;94024.34;5067796;28;20040;-60
2023/06/26 00:05:18;;;;;;;12.43;8.23;;;;;;;16.70;100.00;94024.00;5068066;28;20409;-60
2023/06/26 00:07:44;;;;;;;10.53;7.30;;;;;;;16.66;100.00;94025.34;5046032;28;20049;-61
2023/06/26 00:10:11;;;;;;;10.98;7.93;;;;;;;16.63;100.00;94020.72;5059684;28;20063;-60
2023/06/26 00:12:38;;;;;;;11.70;7.90;;;;;;;16.64;100.00;94023.06;5067311;28;20436;-61
2023/06/26 00:15:05;;;;;;;10.95;7.95;;;;;;;16.60;100.00;94022.41;5068510;28;20050;-60
2023/06/26 00:17:36;;;;;;;11.10;7.70;;;;;;;16.58;100.00;94027.63;5067798;28;20053;-60
2023/06/26 00:20:05;;;;;;;10.83;7.73;;;;;;;16.52;100.00;94027.44;5054166;28;20044;-60
2023/06/26 00:22:32;;;;;;;11.52;8.20;;;;;;;16.45;100.00;94030.44;5069003;28;20702;-61
2023/06/26 00:24:58;;;;;;;21.55;13.77;;;;;;;16.43;100.00;94034.91;5050330;28;20054;-61
2023/06/26 00:27:25;;;;;;;15.57;10.60;;;;;;;16.40;100.00;94024.72;5065166;28;20079;-60
2023/06/26 00:29:53;;;;;;;12.35;8.38;;;;;;;16.41;100.00;94031.81;5067617;28;20070;-61
2023/06/26 00:32:19;;;;;;;10.90;7.80;;;;;;;16.39;100.00;94032.25;5065666;28;20050;-60
2023/06/26 00:34:46;;;;;;;11.20;7.90;;;;;;;16.36;100.00;94036.72;5067948;28;20402;-61
2023/06/26 00:37:13;;;;;;;10.45;7.82;;;;;;;16.33;100.00;94036.81;5067848;28;20420;-60
2023/06/26 00:39:40;;;;;;;10.50;7.50;;;;;;;16.28;100.00;94035.41;5067764;28;20048;-61
2023/06/26 00:42:07;;;;;;;12.43;8.40;;;;;;;16.24;100.00;94028.44;5068035;28;20082;-60
2023/06/26 00:44:35;;;;;;;11.40;8.20;;;;;;;16.17;100.00;94027.47;5050128;28;20036;-60
2023/06/26 00:47:02;;;;;;;10.43;7.60;;;;;;;16.12;100.00;94032.81;5068030;28;20052;-60
2023/06/26 00:49:29;;;;;;;10.85;7.70;;;;;;;16.13;100.00;94028.81;5067080;28;20047;-61
2023/06/26 00:51:56;;;;;;;10.27;7.40;;;;;;;16.10;100.00;94027.72;5067868;28;20047;-61
2023/06/26 00:54:23;;;;;;;10.75;7.78;;;;;;;16.08;100.00;94035.72;5066156;28;20045;-60
2023/06/26 00:56:50;;;;;;;13.33;8.33;;;;;;;16.01;100.00;94035.94;5056191;28;20539;-61
2023/06/26 00:59:16;;;;;;;10.80;7.30;;;;;;;15.96;100.00;94026.22;5066986;28;20052;-60
2023/06/26 01:01:43;;;;;;;11.20;8.05;;;;;;;15.72;100.00;94020.31;5037129;28;20346;-60
2023/06/26 01:04:17;;;;;;;10.95;7.80;;;;;;;15.72;100.00;94027.81;5067766;28;20206;-61
2023/06/26 01:06:49;;;;;;;12.48;7.90;;;;;;;15.75;100.00;94029.72;5066788;28;20752;-60
2023/06/26 01:09:19;;;;;;;12.17;8.43;;;;;;;15.74;100.00;94023.41;5067198;28;20225;-60
2023/06/26 01:11:46;;;;;;;12.85;8.70;;;;;;;15.68;100.00;94027.16;5067723;28;20070;-60
2023/06/26 01:14:14;;;;;;;13.35;9.00;;;;;;;15.61;100.00;94025.38;5067213;28;20455;-60
2023/06/26 01:16:47;;;;;;;11.60;8.15;;;;;;;15.63;100.00;94027.72;5055879;28;20193;-61
2023/06/26 01:19:24;;;;;;;13.13;8.68;;;;;;;15.65;100.00;94026.03;5066963;28;20041;-60
2023/06/26 01:22:02;;;;;;;13.73;8.70;;;;;;;15.66;100.00;94026.84;5071835;28;20049;-60
2023/06/26 01:24:36;;;;;;;11.80;8.27;;;;;;;15.66;100.00;94021.31;5067348;28;20036;-60
2023/06/26 01:27:04;;;;;;;13.20;8.43;;;;;;;15.63;100.00;94020.19;5067382;28;20070;-60
2023/06/26 01:29:33;;;;;;;12.20;8.60;;;;;;;15.63;100.00;94031.25;5064525;28;20045;-61
2023/06/26 01:32:00;;;;;;;12.65;9.10;;;;;;;15.61;100.00;94025.38;5067489;28;20049;-60
2023/06/26 01:34:27;;;;;;;12.03;8.40;;;;;;;15.49;100.00;94024.22;5058791;28;20060;-60
2023/06/26 01:36:55;;;;;;;12.63;8.65;;;;;;;15.22;100.00;94032.19;5067943;28;20041;-61
2023/06/26 01:39:21;;;;;;;12.73;9.05;;;;;;;15.13;100.00;94025.34;5052944;28;20045;-60
2023/06/26 01:41:48;;;;;;;13.45;8.80;;;;;;;15.10;100.00;94028.97;5053070;28;20477;-60
2023/06/26 01:44:36;;;;;;;11.82;8.45;;;;;;;15.13;100.00;94030.88;5070636;28;20049;-60
2023/06/26 01:47:04;;;;;;;14.90;8.67;;;;;;;15.15;100.00;94030.41;5071098;28;20052;-60
2023/06/26 01:49:51;;;;;;;12.40;8.60;;;;;;;15.17;100.00;94030.75;5070433;28;20052;-60
2023/06/26 01:52:40;;;;;;;12.98;8.77;;;;;;;15.15;100.00;94030.41;5052330;28;20040;-61
2023/06/26 01:55:21;;;;;;;12.35;8.70;;;;;;;15.07;100.00;94029.09;5070901;28;20521;-60
2023/06/26 01:57:52;;;;;;;11.93;8.60;;;;;;;14.71;100.00;94025.41;5042433;28;20400;-61
2023/06/26 02:00:20;;;;;;;12.77;9.00;;;;;;;14.76;100.00;94032.38;5066965;28;20066;-61
2023/06/26 02:02:47;;;;;;;12.57;8.60;;;;;;;14.82;100.00;94032.63;5070584;28;20045;-60
2023/06/26 02:05:14;;;;;;;14.05;9.57;;;;;;;14.86;100.00;94033.28;5070262;28;20056;-61
2023/06/26 02:07:42;;;;;;;13.57;8.88;;;;;;;14.86;100.00;94027.75;5070687;28;20039;-61
2023/06/26 02:10:09;;;;;;;13.13;9.13;;;;;;;14.81;100.00;94040.13;5040581;28;20102;-60
2023/06/26 02:12:37;;;;;;;13.77;8.90;;;;;;;14.80;100.00;94029.50;5069324;28;20051;-60
2023/06/26 02:15:04;;;;;;;13.27;8.95;;;;;;;14.24;100.00;94031.44;5052874;28;20052;-60
2023/06/26 02:17:31;;;;;;;13.13;8.52;;;;;;;14.34;100.00;94030.38;5056203;28;20040;-60
2023/06/26 02:19:58;;;;;;;13.75;9.32;;;;;;;14.46;100.00;94033.63;5055472;28;20100;-60
2023/06/26 02:22:24;;;;;;;14.55;9.50;;;;;;;14.38;100.00;94033.03;5046702;28;20063;-60
2023/06/26 02:24:51;;;;;;;13.90;9.00;;;;;;;14.52;100.00;94034.63;5062364;28;20064;-60
2023/06/26 02:27:18;;;;;;;13.73;9.27;;;;;;;14.43;100.00;94032.50;5055911;28;20041;-60
2023/06/26 02:29:45;;;;;;;13.63;9.48;;;;;;;14.42;100.00;94030.19;5074768;28;20406;-60
2023/06/26 02:32:11;;;;;;;14.13;9.35;;;;;;;14.38;100.00;94030.28;5061009;28;20051;-60
2023/06/26 02:34:38;;;;;;;14.93;10.10;;;;;;;14.30;100.00;94026.94;5049215;28;20040;-60
2023/06/26 02:37:07;;;;;;;14.40;9.83;;;;;;;14.16;100.00;94022.56;5065951;28;20036;-60
2023/06/26 02:39:34;;;;;;;13.70;9.38;;;;;;;14.28;100.00;94031.34;5069204;28;20044;-60
2023/06/26 02:42:01;;;;;;;15.88;9.73;;;;;;;14.19;100.00;94038.28;5070200;28;20055;-61
2023/06/26 02:44:28;;;;;;;14.30;9.50;;;;;;;14.17;100.00;94032.41;5069238;28;20063;-60
2023/06/26 02:46:55;;;;;;;19.02;13.68;;;;;;;14.26;100.00;94039.28;5068637;28;20052;-60
2023/06/26 02:49:22;;;;;;;36.40;23.40;;;;;;;14.27;100.00;94036.09;5057434;28;20040;-60
2023/06/26 02:51:49;;;;;;;17.50;11.50;;;;;;;14.34;100.00;94040.66;5069746;28;20310;-60
2023/06/26 02:54:16;;;;;;;14.50;9.85;;;;;;;14.36;100.00;94038.97;5055733;28;20033;-60
2023/06/26 02:56:43;;;;;;;13.93;9.48;;;;;;;14.38;100.00;94041.31;5060646;28;20094;-60
2023/06/26 02:59:14;;;;;;;14.77;9.75;;;;;;;14.43;100.00;94049.06;5055011;28;20410;-60
2023/06/26 03:01:41;;;;;;;15.03;9.93;;;;;;;14.41;100.00;94047.94;5069556;28;20653;-60
2023/06/26 03:04:08;;;;;;;16.23;10.02;;;;;;;14.22;100.00;94042.16;5051738;28;20055;-61
2023/06/26 03:06:35;;;;;;;13.60;9.40;;;;;;;14.19;100.00;94041.03;5065766;28;20466;-60
2023/06/26 03:09:02;;;;;;;15.80;9.80;;;;;;;14.20;100.00;94044.56;5069560;28;20381;-60
2023/06/26 03:11:29;;;;;;;14.55;9.93;;;;;;;14.17;100.00;94043.47;5045052;28;20041;-60
2023/06/26 03:13:56;;;;;;;14.07;9.60;;;;;;;14.21;100.00;94040.59;5062032;28;20064;-61
2023/06/26 03:16:23;;;;;;;14.25;9.60;;;;;;;14.08;100.00;94053.56;5068540;28;20041;-61
2023/06/26 03:18:50;;;;;;;13.82;9.45;;;;;;;14.09;100.00;94050.38;5069294;28;20036;-60
2023/06/26 03:21:17;;;;;;;16.67;9.65;;;;;;;14.10;100.00;94049.16;5060013;28;20109;-59
2023/06/26 03:23:44;;;;;;;17.52;10.02;;;;;;;14.14;100.00;94044.31;5060170;28;20416;-59
2023/06/26 03:26:11;;;;;;;16.93;9.87;;;;;;;14.17;100.00;94048.22;5064818;28;21413;-59
2023/06/26 03:28:38;;;;;;;13.75;9.30;;;;;;;14.12;100.00;94046.75;5067962;28;21670;-60
2023/06/26 03:31:04;;;;;;;14.40;9.38;;;;;;;14.11;100.00;94053.47;5036687;28;20399;-60
2023/06/26 03:33:31;;;;;;;13.68;9.35;;;;;;;14.10;100.00;94046.41;5046593;28;20041;-60
2023/06/26 03:35:59;;;;;;;18.08;10.60;;;;;;;14.02;100.00;94053.31;5059917;28;20091;-63
2023/06/26 03:38:26;;;;;;;15.20;9.47;;;;;;;14.13;100.00;94053.06;5067956;28;20524;-59
2023/06/26 03:40:52;;;;;;;15.43;10.10;;;;;;;14.14;100.00;94052.59;5047528;28;20045;-59
2023/06/26 03:43:19;;;;;;;14.82;10.15;;;;;;;14.11;100.00;94052.72;5047468;28;20047;-60
2023/06/26 03:45:46;;;;;;;14.88;9.82;;;;;;;14.02;100.00;94050.56;5068615;28;20615;-60
2023/06/26 03:48:13;;;;;;;13.68;9.77;;;;;;;14.06;100.00;94058.75;5067774;28;20057;-60
2023/06/26 03:50:40;;;;;;;14.63;9.87;;;;;;;14.10;100.00;94062.19;5068684;28;20040;-60
2023/06/26 03:53:07;;;;;;;15.32;10.20;;;;;;;14.16;100.00;94050.19;5068310;28;20042;-59
2023/06/26 03:55:34;;;;;;;14.45;9.73;;;;;;;14.08;100.00;94062.63;5068016;28;20049;-60
2023/06/26 03:58:01;;;;;;;16.67;10.15;;;;;;;13.89;100.00;94056.03;5067964;28;20054;-60
2023/06/26 04:00:28;;;;;;;16.40;10.73;;;;;;;13.94;100.00;94055.50;5067785;28;20101;-60
2023/06/26 04:02:55;;;;;;;15.93;10.50;;;;;;;13.99;100.00;94063.25;5055276;28;20055;-60
2023/06/26 04:05:22;;;;;;;15.07;10.10;;;;;;;14.06;100.00;94058.75;5037288;28;20077;-60
2023/06/26 04:07:51;;;;;;;16.27;11.15;;;;;;;14.04;100.00;94063.94;5068219;28;20052;-60
2023/06/26 04:10:17;;;;;;;14.90;10.23;;;;;;;14.05;100.00;94062.72;5067869;28;20089;-59
2023/06/26 04:12:44;;;;;;;15.63;10.43;;;;;;;14.11;100.00;94067.28;5068413;28;20038;-60
2023/06/26 04:15:11;;;;;;;16.20;10.27;;;;;;;14.17;100.00;94062.00;5047210;28;20068;-60
2023/06/26 04:17:38;;;;;;;15.77;10.63;;;;;;;14.36;100.00;94065.81;5067196;28;20281;-60
2023/06/26 04:20:08;;;;;;;18.50;11.05;;;;;;;14.31;100.00;94063.63;5046357;28;20052;-59
2023/06/26 04:22:35;;;;;;;15.88;10.70;;;;;;;14.19;100.00;94065.13;5067809;28;20044;-60
2023/06/26 04:25:03;;;;;;;17.65;10.98;;;;;;;14.15;100.00;94064.44;5068539;28;20036;-60
2023/06/26 04:27:30;;;;;;;15.23;10.20;;;;;;;14.44;100.00;94069.16;5053778;28;20040;-60
2023/06/26 04:29:57;;;;;;;14.65;10.60;;;;;;;15.73;100.00;94068.13;5074573;28;20048;-60
2023/06/26 04:32:24;;;;;;;13.90;10.23;;;;;;;17.89;100.00;94063.84;5057776;28;20131;-60
2023/06/26 04:34:50;;;;;;;14.27;11.18;;;;;;;18.61;100.00;94060.78;5050208;28;20154;-61
2023/06/26 04:37:17;;;;;;;13.50;10.10;;;;;;;19.71;96.27;94054.97;5060937;28;20113;-61
2023/06/26 04:39:44;;;;;;;14.23;10.70;;;;;;;19.72;96.08;94047.41;5042989;28;20037;-61
2023/06/26 04:42:13;;;;;;;12.80;9.95;;;;;;;21.27;87.16;94049.44;5060780;28;20053;-60
2023/06/26 04:44:41;;;;;;;15.52;10.90;;;;;;;21.10;84.33;94048.34;5061281;28;20855;-60
2023/06/26 04:47:08;;;;;;;15.13;10.35;;;;;;;19.72;90.67;94048.19;5050423;28;20805;-59
2023/06/26 04:49:35;;;;;;;13.77;11.35;;;;;;;18.53;98.78;94055.56;5067170;28;20135;-59
2023/06/26 04:52:05;;;;;;;15.37;11.33;;;;;;;17.96;100.00;94053.19;5067958;28;20049;-59
2023/06/26 04:54:31;;;;;;;15.48;11.63;;;;;;;17.53;100.00;94051.38;5067427;28;20121;-59
2023/06/26 04:56:59;;;;;;;15.13;10.85;;;;;;;16.88;100.00;94047.53;5054508;28;20063;-59
2023/06/26 04:59:26;;;;;;;13.77;11.00;;;;;;;16.63;100.00;94049.19;5067659;28;20047;-61
2023/06/26 05:01:53;;;;;;;15.85;11.75;;;;;;;16.14;100.00;94045.00;5067840;28;20061;-61
2023/06/26 05:04:20;;;;;;;15.93;11.30;;;;;;;16.07;100.00;94050.75;5067639;28;20069;-60
2023/06/26 05:06:47;;;;;;;18.67;11.52;;;;;;;15.76;100.00;94051.41;5062477;28;20047;-61
2023/06/26 05:09:13;;;;;;;17.40;11.88;;;;;;;16.00;100.00;94047.47;5068466;28;20109;-60
2023/06/26 05:11:40;;;;;;;18.00;12.25;;;;;;;16.25;100.00;94047.38;5064501;28;20048;-61
2023/06/26 05:14:07;;;;;;;16.27;12.13;;;;;;;16.05;100.00;94038.59;5062462;28;20051;-61
2023/06/26 05:16:34;;;;;;;20.10;12.07;;;;;;;16.34;100.00;94044.69;5070967;28;20048;-62
2023/06/26 05:19:02;;;;;;;18.20;12.10;;;;;;;18.19;100.00;94042.75;5049227;28;20053;-61
2023/06/26 05:21:29;;;;;;;19.52;12.25;;;;;;;20.99;92.27;94037.00;5069930;28;20105;-61
2023/06/26 05:23:57;;;;;;;17.02;11.82;;;;;;;22.11;82.20;94033.16;5071311;28;20048;-61
2023/06/26 05:26:26;;;;;;;16.23;11.88;;;;;;;22.44;79.19;94034.88;5070646;28;20048;-60
2023/06/26 05:28:53;;;;;;;14.67;11.73;;;;;;;22.25;78.16;94039.97;5071155;28;20037;-61
2023/06/26 05:31:20;;;;;;;14.85;11.85;;;;;;;23.59;73.75;94038.28;5076823;28;20044;-60
2023/06/26 05:33:48;;;;;;;14.77;11.18;;;;;;;24.36;68.78;94032.88;5057866;28;20453;-60
2023/06/26 05:36:16;;;;;;;14.45;11.23;;;;;;;24.64;66.67;94035.81;5069889;28;20404;-60
2023/06/26 05:38:43;;;;;;;14.82;11.35;;;;;;;24.12;67.58;94034.81;5071148;28;20485;-62
2023/06/26 05:41:10;;;;;;;13.73;11.40;;;;;;;24.30;67.00;94030.06;5070942;28;20048;-61
2023/06/26 05:43:37;;;;;;;14.32;11.73;;;;;;;24.60;67.44;94029.69;5061025;28;20071;-62
2023/06/26 05:46:04;;;;;;;13.90;11.07;;;;;;;25.75;61.24;94030.09;5049518;28;20059;-62
2023/06/26 05:48:31;;;;;;;14.30;11.02;;;;;;;27.26;55.42;94031.63;5063299;28;20059;-62
2023/06/26 05:50:58;;;;;;;13.95;10.88;;;;;;;27.95;52.80;94040.31;5047333;28;20053;-61
2023/06/26 05:53:25;;;;;;;13.83;10.00;;;;;;;28.53;49.84;94031.50;5052670;28;20067;-62
2023/06/26 05:55:52;;;;;;;12.88;10.82;;;;;;;26.13;55.46;94033.41;5070662;28;20068;-62
2023/06/26 05:58:20;;;;;;;13.50;11.10;;;;;;;25.93;57.05;94034.47;5048719;28;20049;-62
2023/06/26 06:00:47;;;;;;;11.57;10.32;;;;;;;28.29;51.39;94043.56;5061735;28;20067;-62
2023/06/26 06:03:14;;;;;;;13.85;10.60;;;;;;;27.97;51.17;94032.88;5060688;28;20037;-62
2023/06/26 06:05:41;;;;;;;14.83;10.83;;;;;;;26.86;53.72;94041.56;5063441;28;20397;-60
2023/06/26 06:08:08;;;;;;;14.43;10.65;;;;;;;28.30;50.72;94033.81;5070166;28;20041;-60
2023/06/26 06:10:35;;;;;;;13.85;10.45;;;;;;;29.19;47.76;94034.00;5062577;28;20623;-62
2023/06/26 06:13:02;;;;;;;16.13;10.18;;;;;;;29.70;46.30;94026.81;5051473;28;20056;-62
2023/06/26 06:15:29;;;;;;;13.93;9.80;;;;;;;31.28;43.81;94024.56;5046521;28;20048;-62
2023/06/26 06:17:56;;;;;;;11.57;9.80;;;;;;;31.64;41.03;94026.84;5057473;28;20040;-62
2023/06/26 06:20:24;;;;;;;12.10;10.00;;;;;;;30.66;41.98;94032.28;5072874;28;20047;-63
2023/06/26 06:22:51;;;;;;;14.75;9.75;;;;;;;28.33;47.42;94037.63;5070521;28;20401;-62
2023/06/26 06:25:18;;;;;;;14.85;10.63;;;;;;;30.49;44.12;94029.06;5069447;28;20043;-61
2023/06/26 06:27:44;;;;;;;14.30;10.30;;;;;;;31.23;42.23;94031.13;5069870;28;20401;-62
2023/06/26 06:30:12;;;;;;;11.60;8.90;;;;;;;33.11;38.52;94025.81;5076318;28;20161;-63
2023/06/26 06:32:38;;;;;;;10.63;9.43;;;;;;;32.51;37.86;94031.34;5051234;28;20669;-63
2023/06/26 06:35:09;;;;;;;12.10;8.88;;;;;;;32.98;38.75;94029.50;5070130;28;20513;-63
2023/06/26 06:37:38;;;;;;;10.73;9.20;;;;;;;34.28;35.73;94019.78;5061426;28;20159;-63
2023/06/26 06:40:06;;;;;;;10.85;9.25;;;;;;;35.88;33.36;94014.81;5063040;28;20117;-62
2023/06/26 06:42:33;;;;;;;10.50;8.57;;;;;;;35.52;32.96;94020.94;5059827;28;20056;-62
2023/06/26 06:45:02;;;;;;;9.93;8.35;;;;;;;33.09;37.24;94014.25;5063728;28;20576;-63
2023/06/26 06:47:30;;;;;;;13.27;9.55;;;;;;;31.83;39.04;94018.13;5036673;28;20158;-63
2023/06/26 06:49:56;;;;;;;12.13;9.38;;;;;;;34.33;35.27;94015.94;5043506;28;20482;-62
2023/06/26 06:52:23;;;;;;;13.73;8.60;;;;;;;34.57;33.63;94017.44;5051761;28;20110;-63
2023/06/26 06:54:55;;;;;;;10.07;7.93;;;;;;;33.58;34.90;94025.38;5060238;28;20044;-62
2023/06/26 06:57:22;;;;;;;11.25;8.10;;;;;;;35.36;33.57;94012.44;5062705;28;20059;-63
2023/06/26 06:59:49;;;;;;;9.70;8.10;;;;;;;36.95;30.29;94015.19;5061116;28;20070;-63
2023/06/26 07:02:19;;;;;;;11.75;7.80;;;;;;;36.40;31.43;94017.06;5055569;28;20056;-62
2023/06/26 07:04:46;;;;;;;9.82;7.90;;;;;;;38.25;28.71;94017.63;5069534;28;20041;-63
2023/06/26 07:07:15;;;;;;;9.97;7.30;;;;;;;39.38;28.01;94011.72;5063383;28;20041;-61
2023/06/26 07:09:42;;;;;;;8.52;7.25;;;;;;;40.43;26.35;94014.16;5062541;28;20040;-59
2023/06/26 07:12:09;;;;;;;11.63;7.20;;;;;;;40.34;26.19;94004.97;5069304;28;20072;-61
2023/06/26 07:14:36;;;;;;;8.45;6.90;;;;;;;40.85;25.37;93995.41;5068722;28;20044;-62
2023/06/26 07:17:03;;;;;;;8.65;6.72;;;;;;;38.54;26.97;94012.00;5065895;28;20056;-61
2023/06/26 07:19:29;;;;;;;9.77;6.80;;;;;;;39.19;26.56;94010.41;5068388;28;20154;-62
2023/06/26 07:21:56;;;;;;;7.70;6.82;;;;;;;37.90;27.32;94015.69;5070415;28;20060;-61
2023/06/26 07:24:23;;;;;;;8.30;7.30;;;;;;;36.56;29.66;94007.00;5068981;28;20051;-61
2023/06/26 07:26:50;;;;;;;10.18;6.75;;;;;;;36.36;30.11;94017.50;5055683;28;20049;-61
2023/06/26 07:29:16;;;;;;;7.55;6.72;;;;;;;37.82;29.24;94022.88;5069073;28;20121;-61
2023/06/26 07:31:45;;;;;;;8.63;6.77;;;;;;;37.53;28.35;94018.50;5074619;28;20040;-62
2023/06/26 07:34:12;;;;;;;8.45;6.35;;;;;;;35.62;32.15;94013.25;5069155;28;20058;-62
2023/06/26 07:36:39;;;;;;;6.90;6.20;;;;;;;37.59;29.60;94021.13;5050673;28;20043;-62
2023/06/26 07:39:05;;;;;;;9.15;6.68;;;;;;;38.60;28.06;94014.56;5038181;28;20444;-60
2023/06/26 07:41:32;;;;;;;7.38;6.47;;;;;;;36.57;29.04;94019.94;5068888;28;20507;-61
2023/06/26 07:43:59;;;;;;;7.30;6.37;;;;;;;38.73;26.94;94014.13;5064063;28;20057;-61
2023/06/26 07:46:26;;;;;;;7.22;5.90;;;;;;;40.33;24.67;94011.34;5023126;28;20045;-61
2023/06/26 07:48:53;;;;;;;8.25;6.40;;;;;;;40.38;24.02;94009.50;5068244;28;20055;-63
2023/06/26 07:51:20;;;;;;;6.60;5.55;;;;;;;41.12;20.71;94012.34;5057921;28;20109;-62
2023/06/26 07:53:47;;;;;;;6.47;5.45;;;;;;;42.35;20.87;94005.00;5066615;28;20054;-63
2023/06/26 07:56:14;;;;;;;6.87;5.67;;;;;;;42.14;20.58;94005.88;5059602;28;20049;-62
2023/06/26 07:58:41;;;;;;;7.47;5.70;;;;;;;41.40;20.14;93999.06;5064795;28;20138;-62
2023/06/26 08:01:07;;;;;;;9.38;5.53;;;;;;;40.14;21.33;94004.28;5069037;28;20162;-63
2023/06/26 08:03:34;;;;;;;7.13;5.40;;;;;;;40.68;21.19;94000.06;5052430;28;20350;-63
2023/06/26 08:06:03;;;;;;;6.05;5.45;;;;;;;38.72;23.22;94012.66;5038303;28;20055;-63
2023/06/26 08:08:30;;;;;;;5.67;5.13;;;;;;;40.98;20.57;93997.00;5050285;28;20048;-63
2023/06/26 08:10:56;;;;;;;6.68;5.22;;;;;;;41.65;20.33;93994.91;5068680;28;20045;-63
2023/06/26 08:13:23;;;;;;;7.22;5.40;;;;;;;41.92;20.28;93988.69;5050246;28;20565;-63
2023/06/26 08:15:50;;;;;;;7.15;5.70;;;;;;;41.45;19.37;93994.31;5068431;28;20044;-63
2023/06/26 08:18:18;;;;;;;5.80;5.13;;;;;;;42.22;18.88;93992.72;5068237;28;20049;-63
2023/06/26 08:20:45;;;;;;;6.07;5.47;;;;;;;41.42;19.17;93995.56;5051925;28;20405;-63
2023/06/26 08:23:12;;;;;;;7.80;5.10;;;;;;;41.10;18.97;93987.03;5060513;28;20074;-63
2023/06/26 08:25:38;;;;;;;8.48;4.90;;;;;;;41.17;18.75;93988.22;5067822;28;20047;-61
2023/06/26 08:28:05;;;;;;;6.32;5.05;;;;;;;41.17;19.06;93988.22;5050140;28;20086;-61
2023/06/26 08:30:32;;;;;;;8.52;5.40;;;;;;;38.78;20.68;93995.88;5074873;28;20068;-62
2023/06/26 08:32:59;;;;;;;6.80;5.10;;;;;;;39.91;19.87;93987.59;5047139;28;20118;-62
2023/06/26 08:35:26;;;;;;;6.13;5.30;;;;;;;39.41;20.73;93987.56;5063532;28;20055;-63
2023/06/26 08:37:54;;;;;;;7.85;5.75;;;;;;;39.19;20.67;93992.44;5068473;28;20074;-62
2023/06/26 08:40:21;;;;;;;6.55;5.43;;;;;;;40.75;19.29;93991.88;5067930;28;20048;-63
2023/06/26 08:42:52;;;;;;;6.55;5.57;;;;;;;42.46;18.35;93986.94;5068970;28;20105;-62
2023/06/26 08:45:20;;;;;;;6.77;5.00;;;;;;;42.15;18.51;93984.31;5072277;28;20049;-62
2023/06/26 08:47:51;;;;;;;7.28;5.50;;;;;;;41.15;19.57;93982.28;5072251;28;20078;-62
2023/06/26 08:50:20;;;;;;;6.25;5.22;;;;;;;40.68;19.96;93987.81;5059990;28;20044;-62
2023/06/26 08:52:59;;;;;;;6.13;5.30;;;;;;;41.45;18.72;93988.56;5072122;28;20043;-63
2023/06/26 08:55:28;;;;;;;6.30;5.57;;;;;;;40.11;20.31;93987.53;5063262;28;20416;-62
2023/06/26 08:57:55;;;;;;;6.10;5.50;;;;;;;39.37;20.96;93990.13;5067898;28;20433;-62
2023/06/26 09:00:22;;;;;;;6.53;5.80;;;;;;;38.32;21.94;93988.09;5065059;28;20049;-62
2023/06/26 09:02:49;;;;;;;8.48;5.30;;;;;;;41.01;19.88;93976.38;5054910;28;20056;-63
2023/06/26 09:05:17;;;;;;;6.53;5.38;;;;;;;42.06;18.80;93983.09;5051747;28;20045;-63
2023/06/26 09:07:44;;;;;;;8.20;5.82;;;;;;;41.55;19.41;93982.69;5070905;28;20036;-63
2023/06/26 09:10:11;;;;;;;6.20;5.50;;;;;;;41.20;19.91;93980.47;5072368;28;20040;-62
2023/06/26 09:12:38;;;;;;;9.70;6.10;;;;;;;40.08;20.57;93980.09;5071120;28;20067;-62
2023/06/26 09:15:06;;;;;;;6.53;5.50;;;;;;;41.36;19.50;93972.88;5071877;28;20044;-62
2023/06/26 09:17:39;;;;;;;6.28;5.60;;;;;;;40.75;20.85;93984.00;5053864;28;20143;-62
2023/06/26 09:20:07;;;;;;;6.20;5.60;;;;;;;42.42;19.12;93975.13;5076067;28;20151;-62
2023/06/26 09:22:40;;;;;;;6.20;5.60;;;;;;;40.33;20.26;93973.97;5064252;28;20067;-62
2023/06/26 09:25:07;;;;;;;7.05;5.70;;;;;;;37.98;22.87;93969.72;5071843;28;20393;-62
2023/06/26 09:27:35;;;;;;;7.45;5.80;;;;;;;38.55;22.64;93967.63;5071294;28;20051;-62
2023/06/26 09:30:03;;;;;;;6.63;5.97;;;;;;;39.82;20.94;93970.38;5058637;28;20044;-62
2023/06/26 09:32:30;;;;;;;7.65;5.70;;;;;;;39.41;21.70;93961.72;5071001;28;20497;-62
2023/06/26 09:34:57;;;;;;;7.67;6.23;;;;;;;38.76;22.72;93981.41;5065728;28;20045;-62
2023/06/26 09:37:24;;;;;;;6.40;5.80;;;;;;;39.09;22.43;93972.34;5064002;28;20101;-61
2023/06/26 09:39:51;;;;;;;7.80;6.40;;;;;;;38.90;22.02;93965.22;5071172;28;20044;-62
2023/06/26 09:42:19;;;;;;;7.38;6.32;;;;;;;37.34;24.48;93973.31;5070989;28;20056;-61
2023/06/26 09:44:47;;;;;;;7.55;6.60;;;;;;;37.40;23.89;93973.06;5071320;28;20121;-61
2023/06/26 09:47:21;;;;;;;7.97;5.83;;;;;;;39.81;21.86;93966.00;5062562;28;20068;-62
2023/06/26 09:49:52;;;;;;;8.15;6.00;;;;;;;38.74;22.17;93972.63;5067739;28;20093;-61
2023/06/26 09:52:19;;;;;;;7.00;6.30;;;;;;;39.75;21.90;93966.31;5070439;28;20109;-62
2023/06/26 09:54:46;;;;;;;6.90;6.20;;;;;;;39.23;21.64;93970.50;5056911;28;20041;-61
2023/06/26 09:57:16;;;;;;;8.13;6.35;;;;;;;37.47;23.81;93974.28;5049443;28;20113;-60
2023/06/26 09:59:45;;;;;;;7.17;6.47;;;;;;;36.53;25.21;93973.13;5066766;28;20037;-61
2023/06/26 10:02:13;;;;;;;8.65;6.72;;;;;;;36.87;25.21;93968.78;5065803;28;20053;-61
2023/06/26 10:04:40;;;;;;;7.25;6.10;;;;;;;36.76;24.08;93972.88;5050107;28;20492;-61
2023/06/26 10:07:17;;;;;;;9.00;6.82;;;;;;;35.43;26.06;93970.94;5061707;28;20050;-61
2023/06/26 10:09:48;;;;;;;8.50;7.00;;;;;;;36.84;25.04;93970.69;5057730;28;20399;-60
2023/06/26 10:12:26;;;;;;;7.27;6.57;;;;;;;38.05;23.93;93970.94;5070378;28;20489;-62
2023/06/26 10:14:55;;;;;;;7.00;6.30;;;;;;;39.78;21.50;93961.47;5070958;28;20436;-62
2023/06/26 10:17:25;;;;;;;7.28;6.03;;;;;;;39.69;21.48;93954.41;5070599;28;20043;-62
2023/06/26 10:19:53;;;;;;;7.60;6.20;;;;;;;39.07;21.84;93957.84;5059793;28;20079;-62
2023/06/26 10:22:24;;;;;;;7.25;6.30;;;;;;;38.65;22.74;93962.66;5079584;28;20370;-62
2023/06/26 10:24:55;;;;;;;7.50;6.40;;;;;;;37.45;23.54;93956.94;5052423;28;20041;-61
2023/06/26 10:27:25;;;;;;;8.40;6.20;;;;;;;37.26;24.35;93961.22;5051876;28;20048;-60
2023/06/26 10:29:55;;;;;;;7.07;6.20;;;;;;;36.85;24.18;93962.88;5068264;28;20048;-62
2023/06/26 10:32:26;;;;;;;8.30;6.90;;;;;;;36.22;23.88;93961.22;5061065;28;20041;-62
2023/06/26 10:34:53;;;;;;;7.80;7.00;;;;;;;36.51;22.93;93955.81;5070405;28;20041;-61
2023/06/26 10:37:20;;;;;;;8.27;6.50;;;;;;;36.54;23.31;93954.59;5069788;28;20472;-62
2023/06/26 10:39:54;;;;;;;7.80;5.97;;;;;;;36.22;23.30;93958.38;5052335;28;20048;-61
2023/06/26 10:42:35;;;;;;;8.85;6.50;;;;;;;33.98;26.14;93970.75;5069961;28;20046;-60
2023/06/26 10:45:16;;;;;;;9.98;7.03;;;;;;;32.94;28.29;93983.63;5070226;28;20386;-62
2023/06/26 10:47:46;;;;;;;8.73;6.80;;;;;;;33.90;27.00;93966.41;5069254;28;20433;-61
2023/06/26 10:50:35;;;;;;;10.43;6.73;;;;;;;34.82;25.54;93963.44;5069666;28;20150;-60
2023/06/26 10:53:27;;;;;;;8.85;6.60;;;;;;;34.84;25.54;93971.41;5069690;28;20048;-60
2023/06/26 10:56:05;;;;;;;8.40;6.90;;;;;;;34.02;26.69;93973.22;5068977;28;20418;-62
2023/06/26 10:58:40;;;;;;;8.20;6.95;;;;;;;32.91;28.53;93985.53;5069622;28;21106;-61
2023/06/26 11:01:25;;;;;;;8.02;7.22;;;;;;;32.29;29.77;93980.84;5069847;28;20040;-61
2023/06/26 11:04:05;;;;;;;12.10;7.30;;;;;;;32.87;29.32;93984.38;5069046;28;21640;-60
2023/06/26 11:06:34;;;;;;;8.40;7.00;;;;;;;33.44;28.02;93969.94;5055126;28;20400;-60
2023/06/26 11:09:08;;;;;;;8.43;7.20;;;;;;;31.69;30.32;93966.34;5069812;28;20044;-62
2023/06/26 11:12:01;;;;;;;8.85;7.95;;;;;;;32.20;30.17;93963.00;5051824;28;20068;-60
2023/06/26 11:14:30;;;;;;;11.68;7.65;;;;;;;32.10;30.05;93973.34;5068903;28;20056;-61
2023/06/26 11:16:58;;;;;;;8.90;8.00;;;;;;;31.42;32.23;93977.81;5051922;28;20390;-60
2023/06/26 11:19:28;;;;;;;10.20;7.82;;;;;;;31.25;32.75;93977.47;5068997;28;20387;-60
2023/06/26 11:22:00;;;;;;;9.52;7.50;;;;;;;30.79;33.53;93976.94;5075330;28;20617;-60
2023/06/26 11:24:28;;;;;;;8.25;7.38;;;;;;;31.20;34.14;93972.69;5068820;28;20501;-60
2023/06/26 11:27:00;;;;;;;8.98;7.47;;;;;;;31.97;31.97;93979.06;5069179;28;20048;-60